Amboy, California
Current Conditions -  °F | °C
As of 12:56 PM on Thursday 27 Nov 2014 (Local Time) from KNXP Reporting Station
Clear Clear  
Wind Chill: 23°   Ceiling: Unl
Heat Index: 23°   Visibility: 10mi
Dew Point: -8°   Wind: 6mph
Humidity: 12%   Direction: 150°SSE
Pressure: 30.22"   Gusts: NA
Location:  34.56°N, 115.75°W
Report Text: KNXP 272056Z AUTO 15005KT 10SM CLR 23/M08 A3022 RMK AO2 SLP210 T02331078 56032 $
Loading
Personal Weather Stations






























Interactive Weather Map New forecast layout! Learn more

10-Day Weather Forecast

Advertisements
Track Severe Weather on mobile